DLH648 EDDF-UAAA
Flight info
| Callsign | DLH648 |
|---|---|
| Flight time | N/A |
| Altitude | 31000 |
| Route | CINDY8S/18 CINDY Z74 HAREM DCT ASLEP DCT TAKUT L603 BESNI/N0476F350 L605 MIQ DCT ALUTU DCT BIBAG Q104 AKIMA DCT ARSIN DCT GAZDA DCT TEGRI DCT DINRO N743 UDROS UM859 BAMUP/N0480F370 UM859 KARDE UN644 ROLIN DCT TAGAR DCT BT DCT BARAD M747 LUSAL N199 RASAM L88 METKA B476 TIMGA A480 OTBOR/K0887F370 N147 ELAHA Z621 ARBOL M610 TIPSA |
| Aircraft | A346/H-SDE2E3FGHIJ3J4J5M1RWXY/LB1D1 |
Departure
| Time | 2026-05-04 08:10 |
|---|---|
| Airport | Frankfurt Main Airport (EDDF) |
Arrival
| Time | N/A |
|---|---|
| Airport | Almaty International Airport (UAAA) |
| Time | Latitude | Longitude | Altitude | Speed | Heading |
|---|---|---|---|---|---|
| 2026-05-04 07:52 | 50.04641 | 8.55945 | 364 ft | 0 kts | 340° |
| 2026-05-04 07:59 | 50.04626 | 8.55954 | 367 ft | 4 kts | 339° |
| 2026-05-04 07:59 | 50.04603 | 8.55967 | 368 ft | 3 kts | 341° |
| 2026-05-04 08:00 | 50.04583 | 8.55983 | 368 ft | 4 kts | 316° |
| 2026-05-04 08:00 | 50.04572 | 8.56008 | 371 ft | 4 kts | 281° |
| 2026-05-04 08:00 | 50.04573 | 8.56044 | 368 ft | 4 kts | 255° |
| 2026-05-04 08:02 | 50.04584 | 8.56094 | 369 ft | 0 kts | 250° |
| 2026-05-04 08:04 | 50.04581 | 8.56079 | 368 ft | 5 kts | 250° |
| 2026-05-04 08:04 | 50.04550 | 8.55985 | 366 ft | 14 kts | 224° |
| 2026-05-04 08:05 | 50.04441 | 8.55916 | 370 ft | 18 kts | 192° |
| 2026-05-04 08:05 | 50.04310 | 8.55946 | 367 ft | 20 kts | 160° |
| 2026-05-04 08:05 | 50.04230 | 8.55875 | 365 ft | 16 kts | 243° |
| 2026-05-04 08:05 | 50.04177 | 8.55679 | 365 ft | 22 kts | 249° |
| 2026-05-04 08:06 | 50.04123 | 8.55448 | 365 ft | 23 kts | 250° |
| 2026-05-04 08:06 | 50.04068 | 8.55210 | 369 ft | 24 kts | 250° |
| 2026-05-04 08:06 | 50.04008 | 8.54966 | 367 ft | 25 kts | 249° |
| 2026-05-04 08:06 | 50.03946 | 8.54708 | 359 ft | 26 kts | 249° |
| 2026-05-04 08:08 | 50.03440 | 8.52743 | 352 ft | 26 kts | 247° |
| 2026-05-04 08:08 | 50.03308 | 8.52596 | 348 ft | 25 kts | 181° |
| 2026-05-04 08:10 | 49.95208 | 8.52932 | 2391 ft | 197 kts | 180° |
| 2026-05-04 08:11 | 49.93784 | 8.53027 | 2692 ft | 212 kts | 179° |
| 2026-05-04 08:11 | 49.90679 | 8.53243 | 3489 ft | 228 kts | 179° |
| 2026-05-04 08:11 | 49.89102 | 8.53358 | 3887 ft | 226 kts | 179° |
| 2026-05-04 08:12 | 49.87510 | 8.53473 | 4300 ft | 231 kts | 179° |
| 2026-05-04 08:12 | 49.85912 | 8.53587 | 4980 ft | 229 kts | 179° |
| 2026-05-04 08:12 | 49.84315 | 8.53704 | 5647 ft | 231 kts | 180° |
| 2026-05-04 08:12 | 49.82700 | 8.53821 | 6243 ft | 234 kts | 180° |
| 2026-05-04 08:13 | 49.81063 | 8.53945 | 6843 ft | 237 kts | 177° |
| 2026-05-04 08:13 | 49.79476 | 8.54712 | 7409 ft | 245 kts | 147° |
| 2026-05-04 08:13 | 49.78310 | 8.56663 | 8018 ft | 255 kts | 118° |
| 2026-05-04 08:13 | 49.77861 | 8.59361 | 8379 ft | 273 kts | 95° |
| 2026-05-04 08:14 | 49.77784 | 8.62436 | 8729 ft | 289 kts | 93° |
| 2026-05-04 08:14 | 49.77728 | 8.65606 | 9239 ft | 298 kts | 94° |
| 2026-05-04 08:14 | 49.77650 | 8.68828 | 9911 ft | 301 kts | 94° |
| 2026-05-04 08:16 | 49.76739 | 8.94776 | 12398 ft | 396 kts | 95° |
| 2026-05-04 08:16 | 49.76633 | 8.97664 | 12836 ft | 398 kts | 95° |
| 2026-05-04 08:16 | 49.76476 | 9.01952 | 13585 ft | 400 kts | 95° |
| 2026-05-04 08:17 | 49.76274 | 9.06272 | 14208 ft | 404 kts | 98° |
| 2026-05-04 08:17 | 49.75889 | 9.10599 | 14763 ft | 407 kts | 102° |
| 2026-05-04 08:17 | 49.75270 | 9.14886 | 15351 ft | 409 kts | 110° |
| 2026-05-04 08:17 | 49.74162 | 9.18923 | 15951 ft | 408 kts | 122° |
| 2026-05-04 08:19 | 49.61663 | 9.43200 | 19857 ft | 431 kts | 120° |
| 2026-05-04 08:19 | 49.60469 | 9.47492 | 20322 ft | 438 kts | 113° |
| 2026-05-04 08:20 | 49.59487 | 9.51970 | 20787 ft | 443 kts | 111° |
| 2026-05-04 08:20 | 49.58539 | 9.56514 | 21235 ft | 447 kts | 110° |
| 2026-05-04 08:20 | 49.57584 | 9.61097 | 21706 ft | 451 kts | 110° |
| 2026-05-04 08:20 | 49.56607 | 9.65712 | 22155 ft | 454 kts | 111° |
| 2026-05-04 08:21 | 49.55611 | 9.70361 | 22649 ft | 457 kts | 111° |
| 2026-05-04 08:21 | 49.54602 | 9.75022 | 23148 ft | 460 kts | 111° |
| 2026-05-04 08:21 | 49.53490 | 9.79657 | 23598 ft | 462 kts | 116° |
| 2026-05-04 08:21 | 49.52040 | 9.84077 | 23968 ft | 462 kts | 123° |
| 2026-05-04 08:22 | 49.50261 | 9.88189 | 24350 ft | 461 kts | 130° |
| 2026-05-04 08:22 | 49.48260 | 9.92061 | 24735 ft | 463 kts | 132° |
| 2026-05-04 08:24 | 49.33697 | 10.19424 | 27372 ft | 481 kts | 133° |
| 2026-05-04 08:24 | 49.31602 | 10.23355 | 27731 ft | 484 kts | 133° |
| 2026-05-04 08:24 | 49.29434 | 10.27417 | 28089 ft | 486 kts | 133° |
| 2026-05-04 08:24 | 49.27282 | 10.31436 | 28414 ft | 489 kts | 133° |
| 2026-05-04 08:25 | 49.25140 | 10.35416 | 28833 ft | 490 kts | 133° |
| 2026-05-04 08:25 | 49.22880 | 10.39291 | 29066 ft | 487 kts | 136° |
| 2026-05-04 08:25 | 49.18078 | 10.46550 | 29064 ft | 484 kts | 139° |
| 2026-05-04 08:27 | 48.98793 | 10.75057 | 32285 ft | 478 kts | 140° |
| 2026-05-04 08:28 | 48.96401 | 10.78567 | 32699 ft | 477 kts | 140° |
| 2026-05-04 08:28 | 48.94009 | 10.82073 | 33103 ft | 476 kts | 140° |
| 2026-05-04 08:28 | 48.91623 | 10.85564 | 33474 ft | 476 kts | 140° |
| 2026-05-04 08:28 | 48.89234 | 10.89062 | 33789 ft | 477 kts | 140° |
| 2026-05-04 08:29 | 48.86839 | 10.92564 | 34068 ft | 478 kts | 140° |
| 2026-05-04 08:29 | 48.84444 | 10.96064 | 34316 ft | 479 kts | 140° |
| 2026-05-04 08:29 | 48.82034 | 10.99580 | 34542 ft | 480 kts | 140° |
| 2026-05-04 08:31 | 48.65826 | 11.25479 | 35043 ft | 491 kts | 126° |
| 2026-05-04 08:33 | 48.57161 | 11.59363 | 35042 ft | 499 kts | 107° |
| 2026-05-04 08:33 | 48.56321 | 11.64459 | 35043 ft | 500 kts | 105° |
| 2026-05-04 08:35 | 48.50316 | 12.05468 | 35040 ft | 499 kts | 104° |
| 2026-05-04 08:35 | 48.48785 | 12.15710 | 35036 ft | 500 kts | 104° |
| 2026-05-04 08:37 | 48.43347 | 12.51442 | 35037 ft | 499 kts | 104° |
| 2026-05-04 08:38 | 48.41772 | 12.61633 | 35035 ft | 499 kts | 104° |
| 2026-05-04 08:38 | 48.40501 | 12.71928 | 35041 ft | 500 kts | 98° |
| 2026-05-04 08:40 | 48.40838 | 13.13827 | 35042 ft | 499 kts | 88° |
| 2026-05-04 08:41 | 48.40774 | 13.24296 | 35042 ft | 499 kts | 95° |
| 2026-05-04 08:41 | 48.39880 | 13.34645 | 35042 ft | 498 kts | 102° |
| 2026-05-04 08:42 | 48.38169 | 13.44747 | 35045 ft | 497 kts | 109° |
| 2026-05-04 08:42 | 48.35918 | 13.54585 | 35054 ft | 496 kts | 110° |
| 2026-05-04 08:43 | 48.33643 | 13.64387 | 35052 ft | 496 kts | 110° |
| 2026-05-04 08:43 | 48.31370 | 13.74194 | 35040 ft | 496 kts | 110° |
| 2026-05-04 08:44 | 48.29108 | 13.83938 | 35052 ft | 496 kts | 110° |
| 2026-05-04 08:46 | 48.19928 | 14.23073 | 35053 ft | 496 kts | 111° |
| 2026-05-04 08:46 | 48.17611 | 14.32828 | 35040 ft | 496 kts | 110° |
| 2026-05-04 08:47 | 48.15290 | 14.42575 | 35042 ft | 496 kts | 110° |
| 2026-05-04 08:47 | 48.12960 | 14.52314 | 35043 ft | 496 kts | 110° |
| 2026-05-04 08:48 | 48.10603 | 14.62119 | 35044 ft | 496 kts | 111° |
| 2026-05-04 08:48 | 48.08273 | 14.71768 | 35044 ft | 495 kts | 111° |
| 2026-05-04 08:49 | 48.05900 | 14.81556 | 35039 ft | 495 kts | 111° |
| 2026-05-04 08:50 | 47.97630 | 15.15304 | 35036 ft | 495 kts | 110° |
| 2026-05-04 08:51 | 47.95248 | 15.24949 | 35036 ft | 495 kts | 111° |
| 2026-05-04 08:51 | 47.92857 | 15.34578 | 35038 ft | 495 kts | 111° |
| 2026-05-04 08:52 | 47.90454 | 15.44208 | 35036 ft | 495 kts | 111° |
| 2026-05-04 08:52 | 47.88044 | 15.53827 | 35036 ft | 495 kts | 110° |
| 2026-05-04 08:54 | 47.78322 | 15.92230 | 35041 ft | 493 kts | 111° |
| 2026-05-04 08:55 | 47.75884 | 16.01763 | 35044 ft | 493 kts | 111° |
| 2026-05-04 08:55 | 47.73437 | 16.11290 | 35041 ft | 493 kts | 111° |
| 2026-05-04 09:01 | 47.46924 | 17.10958 | 35090 ft | 494 kts | 112° |
| 2026-05-04 09:01 | 47.44318 | 17.20357 | 35094 ft | 494 kts | 112° |
| 2026-05-04 09:02 | 47.41700 | 17.29757 | 35098 ft | 494 kts | 112° |
| 2026-05-04 09:02 | 47.39079 | 17.39127 | 35102 ft | 493 kts | 112° |
| 2026-05-04 09:03 | 47.36454 | 17.48485 | 35100 ft | 493 kts | 112° |
| 2026-05-04 09:03 | 47.33819 | 17.57838 | 35100 ft | 493 kts | 112° |
| 2026-05-04 09:04 | 47.31180 | 17.67167 | 35106 ft | 493 kts | 112° |
| 2026-05-04 09:04 | 47.28523 | 17.76510 | 35106 ft | 493 kts | 112° |
| 2026-05-04 09:05 | 47.26299 | 17.84319 | 35110 ft | 493 kts | 112° |
| 2026-05-04 09:05 | 47.23646 | 17.93602 | 35112 ft | 493 kts | 112° |
| 2026-05-04 09:06 | 47.20975 | 18.02904 | 35115 ft | 494 kts | 112° |
| 2026-05-04 09:08 | 47.10211 | 18.40046 | 35133 ft | 492 kts | 112° |
| 2026-05-04 09:08 | 47.07510 | 18.49271 | 35138 ft | 491 kts | 111° |
| 2026-05-04 09:09 | 47.04789 | 18.58538 | 35141 ft | 491 kts | 112° |
| 2026-05-04 09:09 | 47.02080 | 18.67732 | 35144 ft | 491 kts | 112° |
| 2026-05-04 09:10 | 46.99363 | 18.76913 | 35151 ft | 491 kts | 112° |
| 2026-05-04 09:10 | 46.96643 | 18.86066 | 35150 ft | 489 kts | 111° |
| 2026-05-04 09:11 | 46.93919 | 18.95211 | 35150 ft | 489 kts | 112° |
| 2026-05-04 09:11 | 46.91190 | 19.04336 | 35157 ft | 489 kts | 112° |
| 2026-05-04 09:12 | 46.88449 | 19.13465 | 35171 ft | 489 kts | 111° |
| 2026-05-04 09:14 | 46.77426 | 19.49747 | 35177 ft | 488 kts | 112° |
| 2026-05-04 09:14 | 46.74632 | 19.58765 | 35166 ft | 487 kts | 111° |
| 2026-05-04 09:15 | 46.71837 | 19.67781 | 35158 ft | 487 kts | 112° |
| 2026-05-04 09:15 | 46.69033 | 19.76793 | 35161 ft | 488 kts | 112° |
| 2026-05-04 09:17 | 46.56366 | 20.17113 | 35172 ft | 487 kts | 112° |
| 2026-05-04 09:18 | 46.53513 | 20.26109 | 35175 ft | 487 kts | 112° |
| 2026-05-04 09:18 | 46.50667 | 20.35050 | 35175 ft | 487 kts | 112° |
| 2026-05-04 09:19 | 46.47834 | 20.43919 | 35175 ft | 487 kts | 112° |
| 2026-05-04 09:19 | 46.44957 | 20.52893 | 35192 ft | 487 kts | 112° |
| 2026-05-04 09:20 | 46.42097 | 20.61782 | 35178 ft | 485 kts | 112° |
| 2026-05-04 09:20 | 46.39253 | 20.70596 | 35176 ft | 485 kts | 112° |
| 2026-05-04 09:21 | 46.36383 | 20.79459 | 35175 ft | 485 kts | 112° |
| 2026-05-04 09:21 | 46.33490 | 20.88365 | 35195 ft | 485 kts | 112° |
| 2026-05-04 09:22 | 46.30628 | 20.97140 | 35182 ft | 485 kts | 112° |
| 2026-05-04 09:22 | 46.27749 | 21.05944 | 35182 ft | 485 kts | 112° |
| 2026-05-04 09:23 | 46.25007 | 21.14843 | 35185 ft | 483 kts | 109° |
| 2026-05-04 09:23 | 46.22431 | 21.23823 | 35200 ft | 483 kts | 109° |
| 2026-05-04 09:25 | 46.12071 | 21.59678 | 35189 ft | 483 kts | 109° |
| 2026-05-04 09:26 | 46.09471 | 21.68592 | 35171 ft | 482 kts | 109° |
| 2026-05-04 09:26 | 46.06868 | 21.77487 | 35170 ft | 481 kts | 109° |
| 2026-05-04 09:27 | 46.04256 | 21.86381 | 35164 ft | 482 kts | 109° |
| 2026-05-04 09:27 | 46.01637 | 21.95265 | 35178 ft | 480 kts | 109° |
| 2026-05-04 09:28 | 45.99023 | 22.04100 | 35167 ft | 479 kts | 109° |
| 2026-05-04 09:28 | 45.96408 | 22.12907 | 35161 ft | 479 kts | 109° |
| 2026-05-04 09:29 | 45.93786 | 22.21710 | 35161 ft | 479 kts | 109° |
| 2026-05-04 09:29 | 45.91156 | 22.30504 | 35172 ft | 477 kts | 109° |
| 2026-05-04 09:30 | 45.88530 | 22.39255 | 35158 ft | 476 kts | 109° |
| 2026-05-04 09:30 | 45.85901 | 22.47988 | 35152 ft | 476 kts | 109° |
| 2026-05-04 09:31 | 45.83284 | 22.56651 | 35154 ft | 476 kts | 109° |
| 2026-05-04 09:31 | 45.80640 | 22.65370 | 35146 ft | 475 kts | 110° |
| 2026-05-04 09:32 | 45.77999 | 22.74052 | 35140 ft | 474 kts | 110° |
| 2026-05-04 09:34 | 45.67418 | 23.08530 | 35140 ft | 469 kts | 110° |
| 2026-05-04 09:34 | 45.64778 | 23.17064 | 35135 ft | 468 kts | 110° |
| 2026-05-04 09:35 | 45.62131 | 23.25589 | 35137 ft | 468 kts | 110° |
| 2026-05-04 09:35 | 45.59486 | 23.34082 | 35138 ft | 467 kts | 110° |
| 2026-05-04 09:37 | 45.48864 | 23.67904 | 35133 ft | 466 kts | 110° |
| 2026-05-04 09:38 | 45.46196 | 23.76323 | 35127 ft | 466 kts | 110° |
| 2026-05-04 09:38 | 45.43520 | 23.84744 | 35131 ft | 466 kts | 111° |
| 2026-05-04 09:39 | 45.40838 | 23.93161 | 35145 ft | 465 kts | 111° |
| 2026-05-04 09:39 | 45.38165 | 24.01531 | 35118 ft | 464 kts | 111° |
| 2026-05-04 09:40 | 45.35483 | 24.09884 | 35113 ft | 464 kts | 111° |
| 2026-05-04 09:40 | 45.32792 | 24.18235 | 35112 ft | 464 kts | 111° |
| 2026-05-04 09:42 | 45.21985 | 24.51545 | 35087 ft | 463 kts | 112° |
| 2026-05-04 09:43 | 45.19272 | 24.59841 | 35090 ft | 463 kts | 112° |
| 2026-05-04 09:43 | 45.16547 | 24.68163 | 35085 ft | 465 kts | 112° |
| 2026-05-04 09:44 | 45.13823 | 24.76430 | 35077 ft | 466 kts | 113° |
| 2026-05-04 09:46 | 45.02811 | 25.09611 | 35074 ft | 464 kts | 114° |
| 2026-05-04 09:46 | 45.00044 | 25.17876 | 35074 ft | 464 kts | 114° |
| 2026-05-04 09:47 | 44.97286 | 25.26108 | 35075 ft | 463 kts | 115° |
| 2026-05-04 09:49 | 44.86697 | 25.57438 | 35078 ft | 461 kts | 116° |
| 2026-05-04 09:51 | 44.76965 | 25.85912 | 35090 ft | 460 kts | 116° |
| 2026-05-04 09:51 | 44.74176 | 25.94023 | 35084 ft | 459 kts | 116° |
| 2026-05-04 09:52 | 44.71390 | 26.02096 | 35098 ft | 459 kts | 116° |
| 2026-05-04 09:52 | 44.68592 | 26.10179 | 35086 ft | 459 kts | 116° |
| 2026-05-04 09:53 | 44.65791 | 26.18246 | 35088 ft | 459 kts | 116° |
| 2026-05-04 09:53 | 44.63007 | 26.26240 | 35092 ft | 457 kts | 116° |
| 2026-05-04 09:54 | 44.60177 | 26.34344 | 35088 ft | 457 kts | 116° |
| 2026-05-04 09:54 | 44.57388 | 26.42307 | 35087 ft | 457 kts | 116° |
| 2026-05-04 09:55 | 44.54575 | 26.50314 | 35080 ft | 457 kts | 116° |
| 2026-05-04 09:55 | 44.51762 | 26.58300 | 35079 ft | 456 kts | 116° |
| 2026-05-04 09:56 | 44.48950 | 26.66258 | 35077 ft | 455 kts | 116° |
| 2026-05-04 09:56 | 44.46129 | 26.74215 | 35091 ft | 455 kts | 116° |
| 2026-05-04 09:57 | 44.43304 | 26.82164 | 35075 ft | 455 kts | 116° |
| 2026-05-04 09:57 | 44.40473 | 26.90104 | 35078 ft | 455 kts | 117° |
| 2026-05-04 09:58 | 44.37640 | 26.98029 | 35086 ft | 455 kts | 117° |
| 2026-05-04 09:58 | 44.34792 | 27.05974 | 35076 ft | 455 kts | 117° |
| 2026-05-04 10:00 | 44.23448 | 27.37386 | 35075 ft | 451 kts | 117° |
| 2026-05-04 10:04 | 44.03621 | 27.91436 | 35071 ft | 445 kts | 116° |
| 2026-05-04 10:04 | 44.00763 | 27.99146 | 35066 ft | 445 kts | 116° |
| 2026-05-04 10:05 | 43.97944 | 28.06722 | 35067 ft | 445 kts | 116° |
| 2026-05-04 10:05 | 43.95097 | 28.14358 | 35064 ft | 445 kts | 116° |
| 2026-05-04 10:06 | 43.92224 | 28.22044 | 35054 ft | 445 kts | 116° |
| 2026-05-04 10:06 | 43.89385 | 28.29617 | 35054 ft | 445 kts | 116° |
| 2026-05-04 10:08 | 43.79320 | 28.56306 | 35038 ft | 447 kts | 116° |
| 2026-05-04 10:08 | 43.76428 | 28.63927 | 35052 ft | 446 kts | 116° |
| 2026-05-04 10:09 | 43.73539 | 28.71518 | 35042 ft | 445 kts | 116° |
| 2026-05-04 10:09 | 43.70583 | 28.79048 | 35035 ft | 445 kts | 119° |
| 2026-05-04 10:10 | 43.67158 | 28.86207 | 35036 ft | 447 kts | 123° |
| 2026-05-04 10:10 | 43.63514 | 28.93162 | 35036 ft | 447 kts | 123° |
| 2026-05-04 10:11 | 43.59872 | 29.00113 | 35034 ft | 447 kts | 123° |
| 2026-05-04 10:11 | 43.56222 | 29.07065 | 35031 ft | 447 kts | 123° |
| 2026-05-04 10:12 | 43.52567 | 29.14006 | 35025 ft | 447 kts | 123° |
| 2026-05-04 10:12 | 43.48900 | 29.20945 | 35034 ft | 449 kts | 123° |
| 2026-05-04 10:13 | 43.45221 | 29.27900 | 35018 ft | 449 kts | 123° |
| 2026-05-04 10:13 | 43.41531 | 29.34859 | 35009 ft | 450 kts | 123° |
| 2026-05-04 10:14 | 43.37837 | 29.41808 | 35009 ft | 450 kts | 123° |
| 2026-05-04 10:16 | 43.22873 | 29.69786 | 34993 ft | 455 kts | 123° |
| 2026-05-04 10:16 | 43.19115 | 29.76770 | 34985 ft | 455 kts | 123° |
| 2026-05-04 10:17 | 43.15356 | 29.83740 | 34983 ft | 455 kts | 123° |
| 2026-05-04 10:19 | 43.00332 | 30.11435 | 34975 ft | 451 kts | 123° |
| 2026-05-04 10:19 | 42.96586 | 30.18304 | 34968 ft | 451 kts | 123° |
| 2026-05-04 10:20 | 42.92828 | 30.25174 | 34968 ft | 453 kts | 122° |
| 2026-05-04 10:20 | 42.89053 | 30.32067 | 34964 ft | 453 kts | 122° |
| 2026-05-04 10:21 | 42.85258 | 30.38983 | 34958 ft | 453 kts | 122° |
| 2026-05-04 10:21 | 42.81473 | 30.45855 | 34947 ft | 454 kts | 122° |
| 2026-05-04 10:22 | 42.76417 | 30.56674 | 34945 ft | 448 kts | 112° |
| 2026-05-04 10:23 | 42.74061 | 30.64496 | 34957 ft | 444 kts | 104° |
| 2026-05-04 10:25 | 42.69996 | 30.97338 | 34924 ft | 441 kts | 95° |
| 2026-05-04 10:25 | 42.69143 | 31.05587 | 34924 ft | 441 kts | 95° |
| 2026-05-04 10:26 | 42.68274 | 31.13904 | 34928 ft | 442 kts | 95° |
| 2026-05-04 10:26 | 42.67404 | 31.22191 | 34918 ft | 442 kts | 95° |
| 2026-05-04 10:27 | 42.66528 | 31.30475 | 34910 ft | 442 kts | 95° |
| 2026-05-04 10:27 | 42.65643 | 31.38770 | 34897 ft | 442 kts | 95° |
| 2026-05-04 10:28 | 42.64757 | 31.47042 | 34920 ft | 442 kts | 95° |
| 2026-05-04 10:28 | 42.63859 | 31.55362 | 34904 ft | 446 kts | 95° |
| 2026-05-04 10:29 | 42.62957 | 31.63649 | 34892 ft | 446 kts | 95° |
| 2026-05-04 10:29 | 42.62043 | 31.71991 | 34883 ft | 446 kts | 95° |
| 2026-05-04 10:30 | 42.61124 | 31.80327 | 34884 ft | 446 kts | 95° |
| 2026-05-04 10:30 | 42.60202 | 31.88685 | 34882 ft | 449 kts | 96° |
| 2026-05-04 10:31 | 42.59260 | 31.97091 | 34875 ft | 450 kts | 96° |
| 2026-05-04 10:32 | 42.55920 | 32.26521 | 34864 ft | 451 kts | 97° |
| 2026-05-04 10:33 | 42.54944 | 32.34935 | 34851 ft | 451 kts | 97° |
| 2026-05-04 10:33 | 42.53964 | 32.43358 | 34838 ft | 451 kts | 97° |
| 2026-05-04 10:34 | 42.52980 | 32.51753 | 34845 ft | 450 kts | 97° |
| 2026-05-04 10:34 | 42.51990 | 32.60162 | 34850 ft | 450 kts | 97° |
| 2026-05-04 10:35 | 42.50995 | 32.68542 | 34842 ft | 450 kts | 97° |
| 2026-05-04 10:35 | 42.49994 | 32.76929 | 34846 ft | 450 kts | 97° |
| 2026-05-04 10:36 | 42.48988 | 32.85304 | 34840 ft | 450 kts | 97° |
| 2026-05-04 10:36 | 42.47976 | 32.93686 | 34838 ft | 450 kts | 97° |
| 2026-05-04 10:37 | 42.47132 | 33.00641 | 34845 ft | 450 kts | 97° |
| 2026-05-04 10:37 | 42.46110 | 33.09009 | 34844 ft | 450 kts | 97° |
| 2026-05-04 10:39 | 42.42465 | 33.38333 | 34841 ft | 452 kts | 98° |
| 2026-05-04 10:40 | 42.41406 | 33.46728 | 34834 ft | 451 kts | 98° |
| 2026-05-04 10:40 | 42.40345 | 33.55085 | 34840 ft | 451 kts | 98° |
| 2026-05-04 10:41 | 42.39278 | 33.63461 | 34856 ft | 451 kts | 98° |
| 2026-05-04 10:41 | 42.38210 | 33.71832 | 34837 ft | 451 kts | 98° |
| 2026-05-04 10:42 | 42.37131 | 33.80200 | 34835 ft | 451 kts | 98° |
| 2026-05-04 10:42 | 42.36045 | 33.88565 | 34834 ft | 451 kts | 98° |
| 2026-05-04 10:43 | 42.34953 | 33.96928 | 34834 ft | 451 kts | 98° |
| 2026-05-04 10:45 | 42.30548 | 34.30352 | 34919 ft | 455 kts | 99° |
| 2026-05-04 10:45 | 42.29986 | 34.34559 | 35295 ft | 453 kts | 99° |
| 2026-05-04 10:45 | 42.29427 | 34.38744 | 35687 ft | 451 kts | 99° |
| 2026-05-04 10:45 | 42.28863 | 34.42928 | 35951 ft | 453 kts | 99° |
| 2026-05-04 10:46 | 42.28296 | 34.47118 | 36128 ft | 455 kts | 100° |
| 2026-05-04 10:46 | 42.27723 | 34.51341 | 36381 ft | 456 kts | 100° |
| 2026-05-04 10:46 | 42.27150 | 34.55549 | 36643 ft | 456 kts | 100° |
| 2026-05-04 10:46 | 42.26574 | 34.59778 | 36812 ft | 458 kts | 100° |
| 2026-05-04 10:47 | 42.25994 | 34.64022 | 36821 ft | 459 kts | 100° |
| 2026-05-04 10:47 | 42.24834 | 34.72504 | 36839 ft | 460 kts | 100° |
| 2026-05-04 10:49 | 42.20092 | 35.06450 | 36833 ft | 461 kts | 101° |
| 2026-05-04 10:50 | 42.18890 | 35.14955 | 36843 ft | 462 kts | 101° |
| 2026-05-04 10:52 | 42.14003 | 35.49044 | 36829 ft | 464 kts | 101° |
| 2026-05-04 10:52 | 42.12758 | 35.57589 | 36835 ft | 464 kts | 101° |
| 2026-05-04 10:54 | 42.07726 | 35.91791 | 36836 ft | 467 kts | 102° |
| 2026-05-04 10:56 | 42.02562 | 36.26156 | 36839 ft | 469 kts | 103° |
| 2026-05-04 10:57 | 42.01247 | 36.34774 | 36835 ft | 469 kts | 103° |
| 2026-05-04 10:57 | 41.99932 | 36.43362 | 36837 ft | 469 kts | 103° |
| 2026-05-04 10:58 | 41.98608 | 36.51976 | 36831 ft | 468 kts | 103° |
| 2026-05-04 10:58 | 41.97282 | 36.60548 | 36836 ft | 468 kts | 103° |
| 2026-05-04 10:59 | 41.95947 | 36.69133 | 36836 ft | 468 kts | 103° |
| 2026-05-04 10:59 | 41.94610 | 36.77696 | 36837 ft | 468 kts | 103° |
| 2026-05-04 11:00 | 41.93265 | 36.86297 | 36835 ft | 468 kts | 104° |
| 2026-05-04 11:01 | 41.90171 | 37.16613 | 36838 ft | 472 kts | 93° |
| 2026-05-04 11:02 | 41.90110 | 37.21028 | 36834 ft | 473 kts | 94° |
| 2026-05-04 11:05 | 41.88952 | 37.87360 | 36840 ft | 474 kts | 95° |
| 2026-05-04 11:06 | 41.88770 | 37.96203 | 36837 ft | 473 kts | 95° |
| 2026-05-04 11:06 | 41.88580 | 38.05010 | 36834 ft | 472 kts | 95° |
| 2026-05-04 11:10 | 41.87054 | 38.66784 | 36840 ft | 473 kts | 96° |
| 2026-05-04 11:12 | 41.86035 | 39.02143 | 36844 ft | 473 kts | 96° |
| 2026-05-04 11:12 | 41.85764 | 39.10972 | 36852 ft | 472 kts | 96° |
| 2026-05-04 11:13 | 41.85486 | 39.19791 | 36852 ft | 472 kts | 96° |
| 2026-05-04 11:13 | 41.85202 | 39.28609 | 36834 ft | 472 kts | 96° |
| 2026-05-04 11:14 | 41.84912 | 39.37432 | 36846 ft | 473 kts | 96° |
| 2026-05-04 11:16 | 41.83673 | 39.72708 | 36845 ft | 472 kts | 97° |
| 2026-05-04 11:16 | 41.83347 | 39.81542 | 36856 ft | 474 kts | 97° |
| 2026-05-04 11:17 | 41.83015 | 39.90377 | 36862 ft | 474 kts | 97° |
| 2026-05-04 11:19 | 41.81616 | 40.25688 | 36846 ft | 477 kts | 97° |
| 2026-05-04 11:19 | 41.81247 | 40.34577 | 36863 ft | 477 kts | 97° |
| 2026-05-04 11:20 | 41.80872 | 40.43474 | 36866 ft | 477 kts | 97° |
| 2026-05-04 11:20 | 41.80496 | 40.52365 | 36866 ft | 478 kts | 97° |
| 2026-05-04 11:22 | 41.83571 | 40.83557 | 36861 ft | 489 kts | 78° |
| 2026-05-04 11:22 | 41.84495 | 40.87949 | 36859 ft | 489 kts | 78° |
| 2026-05-04 11:23 | 41.86327 | 40.96667 | 36858 ft | 488 kts | 78° |
| 2026-05-04 11:25 | 41.92708 | 41.27581 | 36849 ft | 494 kts | 78° |
| 2026-05-04 11:25 | 41.94530 | 41.36502 | 36853 ft | 494 kts | 78° |
| 2026-05-04 11:27 | 42.02335 | 41.75180 | 36834 ft | 494 kts | 79° |
| 2026-05-04 11:28 | 42.04119 | 41.84133 | 36808 ft | 494 kts | 79° |
| 2026-05-04 11:28 | 42.05900 | 41.93101 | 36816 ft | 497 kts | 79° |
| 2026-05-04 11:29 | 42.07681 | 42.02112 | 36813 ft | 498 kts | 79° |
| 2026-05-04 11:29 | 42.09457 | 42.11140 | 36801 ft | 498 kts | 79° |
| 2026-05-04 11:33 | 42.21774 | 42.74886 | 36776 ft | 504 kts | 79° |
| 2026-05-04 11:33 | 42.23517 | 42.84059 | 36770 ft | 504 kts | 79° |
| 2026-05-04 11:34 | 42.25237 | 42.93241 | 36765 ft | 503 kts | 81° |
| 2026-05-04 11:34 | 42.26053 | 43.02550 | 36757 ft | 496 kts | 94° |
| 2026-05-04 11:35 | 42.25430 | 43.11754 | 36753 ft | 488 kts | 106° |
| 2026-05-04 11:35 | 42.23469 | 43.20460 | 36732 ft | 481 kts | 117° |
| 2026-05-04 11:36 | 42.20786 | 43.28760 | 36743 ft | 482 kts | 119° |
| 2026-05-04 11:36 | 42.18074 | 43.37037 | 36743 ft | 482 kts | 118° |
| 2026-05-04 11:37 | 42.15378 | 43.45329 | 36740 ft | 482 kts | 118° |
| 2026-05-04 11:37 | 42.12678 | 43.53639 | 36732 ft | 484 kts | 119° |
| 2026-05-04 11:38 | 42.09892 | 43.61909 | 36741 ft | 482 kts | 122° |
| 2026-05-04 11:38 | 42.06590 | 43.69721 | 36746 ft | 478 kts | 128° |
| 2026-05-04 11:39 | 42.02919 | 43.77088 | 36750 ft | 478 kts | 129° |
| 2026-05-04 11:41 | 41.89894 | 44.03004 | 36794 ft | 477 kts | 130° |
| 2026-05-04 11:41 | 41.86169 | 44.10376 | 36828 ft | 476 kts | 130° |
| 2026-05-04 11:42 | 41.82441 | 44.17733 | 36841 ft | 476 kts | 130° |
| 2026-05-04 11:42 | 41.78712 | 44.25087 | 36831 ft | 477 kts | 131° |
| 2026-05-04 11:43 | 41.74966 | 44.32455 | 36850 ft | 478 kts | 131° |
| 2026-05-04 11:43 | 41.71206 | 44.39816 | 36874 ft | 478 kts | 131° |
| 2026-05-04 11:44 | 41.67445 | 44.47174 | 36872 ft | 479 kts | 131° |
| 2026-05-04 11:44 | 41.63669 | 44.54547 | 36892 ft | 480 kts | 131° |
| 2026-05-04 11:45 | 41.59886 | 44.61912 | 36898 ft | 480 kts | 131° |
| 2026-05-04 11:45 | 41.56096 | 44.69275 | 36904 ft | 480 kts | 131° |
| 2026-05-04 11:46 | 41.52300 | 44.76631 | 36906 ft | 480 kts | 131° |
| 2026-05-04 11:46 | 41.48506 | 44.83970 | 36906 ft | 480 kts | 131° |
| 2026-05-04 11:47 | 41.44730 | 44.91261 | 36898 ft | 480 kts | 131° |
| 2026-05-04 11:47 | 41.40930 | 44.98578 | 36888 ft | 480 kts | 131° |
| 2026-05-04 11:48 | 41.37365 | 45.06222 | 36888 ft | 486 kts | 126° |
| 2026-05-04 11:48 | 41.34414 | 45.14319 | 36885 ft | 492 kts | 119° |
| 2026-05-04 11:49 | 41.32043 | 45.22918 | 36876 ft | 497 kts | 115° |
| 2026-05-04 11:49 | 41.29827 | 45.31648 | 36880 ft | 497 kts | 115° |
| 2026-05-04 11:50 | 41.27596 | 45.40364 | 36869 ft | 498 kts | 115° |
| 2026-05-04 11:50 | 41.25339 | 45.49113 | 36875 ft | 500 kts | 115° |
| 2026-05-04 11:51 | 41.23070 | 45.57870 | 36857 ft | 502 kts | 116° |
| 2026-05-04 11:51 | 41.20781 | 45.66657 | 36864 ft | 502 kts | 116° |
| 2026-05-04 11:52 | 41.18470 | 45.75428 | 36863 ft | 502 kts | 116° |
| 2026-05-04 11:52 | 41.16155 | 45.84186 | 36846 ft | 503 kts | 116° |
| 2026-05-04 11:53 | 41.13823 | 45.92987 | 36862 ft | 505 kts | 116° |
| 2026-05-04 11:53 | 41.11488 | 46.01785 | 36861 ft | 505 kts | 116° |
| 2026-05-04 11:55 | 41.02065 | 46.37004 | 36865 ft | 507 kts | 116° |
| 2026-05-04 11:56 | 40.99730 | 46.45730 | 36850 ft | 506 kts | 116° |
| 2026-05-04 11:56 | 40.97358 | 46.54581 | 36878 ft | 506 kts | 116° |
| 2026-05-04 11:57 | 40.95011 | 46.63304 | 36879 ft | 506 kts | 116° |
| 2026-05-04 11:57 | 40.92643 | 46.72078 | 36879 ft | 506 kts | 116° |
| 2026-05-04 11:58 | 40.90270 | 46.80835 | 36877 ft | 506 kts | 116° |
| 2026-05-04 11:58 | 40.87876 | 46.89590 | 36876 ft | 506 kts | 116° |
| 2026-05-04 11:59 | 40.85474 | 46.98337 | 36884 ft | 506 kts | 116° |
| 2026-05-04 11:59 | 40.83073 | 47.07071 | 36867 ft | 506 kts | 116° |
| 2026-05-04 12:00 | 40.80655 | 47.15825 | 36877 ft | 507 kts | 116° |
| 2026-05-04 12:00 | 40.78218 | 47.24557 | 36877 ft | 507 kts | 117° |
| 2026-05-04 12:01 | 40.75770 | 47.33302 | 36884 ft | 509 kts | 117° |
| 2026-05-04 12:02 | 40.67094 | 47.64124 | 36869 ft | 512 kts | 117° |
| 2026-05-04 12:03 | 40.64608 | 47.72918 | 36867 ft | 511 kts | 117° |
| 2026-05-04 12:03 | 40.62113 | 47.81708 | 36869 ft | 512 kts | 116° |
| 2026-05-04 12:04 | 40.60056 | 47.90675 | 36869 ft | 518 kts | 109° |
| 2026-05-04 12:04 | 40.58857 | 48.00083 | 36852 ft | 525 kts | 100° |
| 2026-05-04 12:05 | 40.58607 | 48.09740 | 36845 ft | 530 kts | 92° |
| 2026-05-04 12:05 | 40.58962 | 48.19447 | 36860 ft | 530 kts | 91° |
| 2026-05-04 12:06 | 40.59249 | 48.29144 | 36860 ft | 530 kts | 92° |
| 2026-05-04 12:06 | 40.59492 | 48.38845 | 36853 ft | 529 kts | 92° |
| 2026-05-04 12:07 | 40.59727 | 48.48545 | 36835 ft | 529 kts | 92° |
| 2026-05-04 12:07 | 40.59953 | 48.58236 | 36836 ft | 528 kts | 92° |
| 2026-05-04 12:08 | 40.60179 | 48.67899 | 36833 ft | 528 kts | 92° |
| 2026-05-04 12:08 | 40.60394 | 48.77564 | 36829 ft | 527 kts | 92° |
| 2026-05-04 12:09 | 40.60600 | 48.87222 | 36822 ft | 527 kts | 92° |
| 2026-05-04 12:09 | 40.60798 | 48.96889 | 36819 ft | 528 kts | 92° |
| 2026-05-04 12:10 | 40.60991 | 49.06612 | 36817 ft | 530 kts | 91° |
| 2026-05-04 12:10 | 40.61178 | 49.16334 | 36822 ft | 530 kts | 91° |
| 2026-05-04 12:11 | 40.61589 | 49.26053 | 36822 ft | 532 kts | 88° |
| 2026-05-04 12:11 | 40.62152 | 49.35710 | 36823 ft | 532 kts | 88° |
| 2026-05-04 12:12 | 40.62718 | 49.45432 | 36825 ft | 531 kts | 88° |
| 2026-05-04 12:12 | 40.63268 | 49.55140 | 36806 ft | 532 kts | 88° |
| 2026-05-04 12:14 | 40.65378 | 49.94103 | 36829 ft | 533 kts | 89° |
| 2026-05-04 12:15 | 40.65886 | 50.03840 | 36829 ft | 533 kts | 89° |
| 2026-05-04 12:15 | 40.66384 | 50.13589 | 36801 ft | 532 kts | 88° |
| 2026-05-04 12:16 | 40.66874 | 50.23320 | 36827 ft | 532 kts | 88° |
| 2026-05-04 12:16 | 40.67362 | 50.33058 | 36829 ft | 532 kts | 88° |
| 2026-05-04 12:17 | 40.67758 | 50.41157 | 36842 ft | 532 kts | 89° |
| 2026-05-04 12:17 | 40.68219 | 50.50898 | 36845 ft | 532 kts | 89° |
| 2026-05-04 12:18 | 40.68669 | 50.60633 | 36850 ft | 532 kts | 89° |
| 2026-05-04 12:18 | 40.69117 | 50.70378 | 36843 ft | 532 kts | 89° |
| 2026-05-04 12:19 | 40.69555 | 50.80116 | 36847 ft | 532 kts | 89° |
| 2026-05-04 12:19 | 40.69989 | 50.89861 | 36858 ft | 532 kts | 89° |
| 2026-05-04 12:20 | 40.70413 | 50.99594 | 36862 ft | 531 kts | 89° |
| 2026-05-04 12:20 | 40.70830 | 51.09307 | 36872 ft | 530 kts | 89° |
| 2026-05-04 12:21 | 40.71239 | 51.19034 | 36872 ft | 530 kts | 89° |
| 2026-05-04 12:21 | 40.71641 | 51.28759 | 36873 ft | 530 kts | 89° |
| 2026-05-04 12:22 | 40.72032 | 51.38490 | 36867 ft | 531 kts | 89° |
| 2026-05-04 12:22 | 40.72526 | 51.48217 | 36880 ft | 531 kts | 85° |
| 2026-05-04 12:23 | 40.73713 | 51.57778 | 36877 ft | 532 kts | 78° |
| 2026-05-04 12:23 | 40.75303 | 51.67330 | 36883 ft | 532 kts | 78° |
| 2026-05-04 12:24 | 40.76899 | 51.76869 | 36873 ft | 532 kts | 78° |
| 2026-05-04 12:24 | 40.78468 | 51.86416 | 36875 ft | 531 kts | 78° |
| 2026-05-04 12:25 | 40.80021 | 51.95969 | 36873 ft | 531 kts | 78° |
| 2026-05-04 12:25 | 40.81560 | 52.05511 | 36877 ft | 531 kts | 78° |
| 2026-05-04 12:26 | 40.83094 | 52.15069 | 36875 ft | 532 kts | 78° |
| 2026-05-04 12:26 | 40.84627 | 52.24650 | 36871 ft | 532 kts | 78° |
| 2026-05-04 12:27 | 40.86149 | 52.34226 | 36881 ft | 532 kts | 78° |
| 2026-05-04 12:27 | 40.87665 | 52.43809 | 36880 ft | 532 kts | 78° |
| 2026-05-04 12:28 | 40.89174 | 52.53401 | 36872 ft | 532 kts | 78° |
| 2026-05-04 12:28 | 40.90368 | 52.62985 | 36876 ft | 532 kts | 85° |
| 2026-05-04 12:29 | 40.90876 | 52.72740 | 36875 ft | 530 kts | 88° |
| 2026-05-04 12:29 | 40.91263 | 52.82487 | 36869 ft | 530 kts | 88° |
| 2026-05-04 12:30 | 40.91662 | 52.92233 | 36857 ft | 530 kts | 88° |
| 2026-05-04 12:30 | 40.92071 | 53.02023 | 36869 ft | 531 kts | 88° |
| 2026-05-04 12:31 | 40.92467 | 53.11773 | 36863 ft | 529 kts | 88° |
| 2026-05-04 12:31 | 40.92835 | 53.21422 | 36866 ft | 528 kts | 88° |
| 2026-05-04 12:32 | 40.93370 | 53.35978 | 36866 ft | 528 kts | 88° |
| 2026-05-04 12:33 | 40.93722 | 53.45692 | 36864 ft | 528 kts | 88° |
| 2026-05-04 12:33 | 40.94065 | 53.55362 | 36858 ft | 525 kts | 88° |
| 2026-05-04 12:34 | 40.94400 | 53.65025 | 36858 ft | 525 kts | 88° |
| 2026-05-04 12:34 | 40.94727 | 53.74693 | 36858 ft | 525 kts | 88° |
| 2026-05-04 12:35 | 40.95046 | 53.84348 | 36853 ft | 525 kts | 88° |
| 2026-05-04 12:35 | 40.95357 | 53.94007 | 36856 ft | 524 kts | 88° |
| 2026-05-04 12:36 | 40.95657 | 54.03583 | 36855 ft | 524 kts | 88° |
| 2026-05-04 12:36 | 40.95950 | 54.13238 | 36841 ft | 525 kts | 88° |
| 2026-05-04 12:37 | 40.96236 | 54.22909 | 36851 ft | 526 kts | 88° |
| 2026-05-04 12:37 | 40.96517 | 54.32601 | 36854 ft | 526 kts | 88° |
| 2026-05-04 12:38 | 40.96790 | 54.42326 | 36854 ft | 526 kts | 89° |
| 2026-05-04 12:38 | 40.97054 | 54.52007 | 36854 ft | 526 kts | 89° |
| 2026-05-04 12:39 | 40.97310 | 54.61699 | 36864 ft | 526 kts | 89° |
| 2026-05-04 12:39 | 40.97560 | 54.71364 | 36859 ft | 524 kts | 89° |
| 2026-05-04 12:40 | 40.97799 | 54.81021 | 36850 ft | 525 kts | 89° |
| 2026-05-04 12:40 | 40.98030 | 54.90692 | 36855 ft | 525 kts | 89° |
| 2026-05-04 12:41 | 40.98235 | 55.00362 | 36855 ft | 525 kts | 89° |
| 2026-05-04 12:41 | 40.98435 | 55.10023 | 36849 ft | 523 kts | 89° |
| 2026-05-04 12:42 | 40.98629 | 55.19667 | 36849 ft | 523 kts | 89° |
| 2026-05-04 12:42 | 40.98818 | 55.29313 | 36846 ft | 523 kts | 89° |
| 2026-05-04 12:43 | 40.98995 | 55.38897 | 36838 ft | 524 kts | 89° |
| 2026-05-04 12:43 | 40.99169 | 55.48536 | 36840 ft | 522 kts | 89° |
| 2026-05-04 12:44 | 40.99336 | 55.58162 | 36834 ft | 522 kts | 89° |
| 2026-05-04 12:44 | 40.99496 | 55.67787 | 36840 ft | 522 kts | 89° |
| 2026-05-04 12:45 | 40.99644 | 55.77417 | 36842 ft | 522 kts | 89° |
| 2026-05-04 12:45 | 40.99793 | 55.87028 | 36844 ft | 520 kts | 89° |
| 2026-05-04 12:46 | 40.99942 | 55.96600 | 36833 ft | 519 kts | 89° |
| 2026-05-04 12:46 | 41.00084 | 56.06146 | 36840 ft | 519 kts | 89° |
| 2026-05-04 12:47 | 41.00221 | 56.15724 | 36847 ft | 519 kts | 89° |
| 2026-05-04 12:47 | 41.00350 | 56.25298 | 36843 ft | 518 kts | 89° |
| 2026-05-04 12:48 | 41.00474 | 56.34880 | 36854 ft | 518 kts | 89° |
| 2026-05-04 12:48 | 41.00586 | 56.44422 | 36853 ft | 518 kts | 89° |
| 2026-05-04 12:49 | 41.01045 | 56.53957 | 36852 ft | 518 kts | 83° |
| 2026-05-04 12:49 | 41.02115 | 56.63405 | 36853 ft | 518 kts | 81° |
| 2026-05-04 12:50 | 41.03262 | 56.72837 | 36858 ft | 519 kts | 81° |
| 2026-05-04 12:50 | 41.04395 | 56.82290 | 36866 ft | 519 kts | 81° |
| 2026-05-04 12:51 | 41.05511 | 56.91750 | 36866 ft | 519 kts | 81° |
| 2026-05-04 12:51 | 41.06615 | 57.01206 | 36868 ft | 518 kts | 81° |
| 2026-05-04 12:52 | 41.07709 | 57.10656 | 36879 ft | 518 kts | 81° |
| 2026-05-04 12:52 | 41.08795 | 57.20101 | 36879 ft | 518 kts | 81° |
| 2026-05-04 12:53 | 41.09875 | 57.29560 | 36886 ft | 517 kts | 81° |
| 2026-05-04 12:53 | 41.10944 | 57.38996 | 36883 ft | 516 kts | 81° |
| 2026-05-04 12:54 | 41.11997 | 57.48368 | 36881 ft | 516 kts | 81° |
| 2026-05-04 12:54 | 41.13050 | 57.57802 | 36881 ft | 516 kts | 82° |
| 2026-05-04 12:55 | 41.14095 | 57.67234 | 36889 ft | 516 kts | 82° |
| 2026-05-04 12:55 | 41.15132 | 57.76663 | 36890 ft | 516 kts | 82° |
| 2026-05-04 12:56 | 41.16163 | 57.86097 | 36890 ft | 516 kts | 82° |
| 2026-05-04 12:56 | 41.17189 | 57.95559 | 36896 ft | 516 kts | 82° |
| 2026-05-04 12:57 | 41.18206 | 58.05005 | 36895 ft | 516 kts | 82° |
| 2026-05-04 12:57 | 41.19207 | 58.14438 | 36901 ft | 516 kts | 82° |
| 2026-05-04 12:58 | 41.20197 | 58.23888 | 36903 ft | 516 kts | 82° |
| 2026-05-04 12:58 | 41.21184 | 58.33334 | 36903 ft | 515 kts | 82° |
| 2026-05-04 12:59 | 41.22163 | 58.42765 | 36900 ft | 514 kts | 82° |
| 2026-05-04 12:59 | 41.23136 | 58.52195 | 36910 ft | 514 kts | 82° |
| 2026-05-04 13:00 | 41.24100 | 58.61624 | 36911 ft | 515 kts | 82° |
| 2026-05-04 13:00 | 41.25059 | 58.71083 | 36920 ft | 516 kts | 82° |
| 2026-05-04 13:01 | 41.26012 | 58.80547 | 36909 ft | 515 kts | 82° |
| 2026-05-04 13:01 | 41.26956 | 58.90008 | 36923 ft | 515 kts | 82° |
| 2026-05-04 13:02 | 41.27892 | 58.99467 | 36925 ft | 515 kts | 82° |
| 2026-05-04 13:02 | 41.28819 | 59.08920 | 36923 ft | 514 kts | 82° |
| 2026-05-04 13:03 | 41.29738 | 59.18364 | 36930 ft | 514 kts | 82° |
| 2026-05-04 13:03 | 41.30649 | 59.27797 | 36931 ft | 514 kts | 82° |
| 2026-05-04 13:04 | 41.31553 | 59.37245 | 36933 ft | 513 kts | 82° |
| 2026-05-04 13:04 | 41.32449 | 59.46669 | 36940 ft | 512 kts | 82° |
| 2026-05-04 13:05 | 41.33336 | 59.56105 | 36953 ft | 515 kts | 82° |
| 2026-05-04 13:05 | 41.33798 | 59.60834 | 37230 ft | 515 kts | 81° |
| 2026-05-04 13:05 | 41.34411 | 59.65533 | 37639 ft | 512 kts | 78° |
| 2026-05-04 13:05 | 41.35206 | 59.70138 | 38006 ft | 510 kts | 74° |
| 2026-05-04 13:06 | 41.36191 | 59.74675 | 38287 ft | 509 kts | 71° |
| 2026-05-04 13:06 | 41.37281 | 59.79171 | 38498 ft | 510 kts | 70° |
| 2026-05-04 13:06 | 41.38380 | 59.83604 | 38690 ft | 510 kts | 70° |
| 2026-05-04 13:06 | 41.39494 | 59.88102 | 38858 ft | 511 kts | 70° |
| 2026-05-04 13:07 | 41.40599 | 59.92597 | 38926 ft | 511 kts | 70° |
| 2026-05-04 13:07 | 41.42791 | 60.01610 | 38938 ft | 511 kts | 71° |
| 2026-05-04 13:08 | 41.44969 | 60.10628 | 38938 ft | 510 kts | 71° |
| 2026-05-04 13:08 | 41.47138 | 60.19653 | 38941 ft | 510 kts | 71° |
| 2026-05-04 13:09 | 41.48926 | 60.27219 | 38949 ft | 510 kts | 71° |
| 2026-05-04 13:09 | 41.51044 | 60.36258 | 38958 ft | 509 kts | 71° |
| 2026-05-04 13:10 | 41.53149 | 60.45241 | 38964 ft | 508 kts | 71° |
| 2026-05-04 13:10 | 41.55274 | 60.54324 | 38966 ft | 508 kts | 71° |
| 2026-05-04 13:11 | 41.57360 | 60.63292 | 38967 ft | 508 kts | 71° |
| 2026-05-04 13:11 | 41.59617 | 60.72233 | 38938 ft | 507 kts | 69° |
| 2026-05-04 13:12 | 41.61961 | 60.81126 | 38940 ft | 507 kts | 69° |
| 2026-05-04 13:12 | 41.64296 | 60.90014 | 38943 ft | 506 kts | 69° |
| 2026-05-04 13:13 | 41.66621 | 60.98916 | 38954 ft | 506 kts | 69° |
| 2026-05-04 13:13 | 41.68937 | 61.07815 | 38954 ft | 506 kts | 69° |
| 2026-05-04 13:14 | 41.71245 | 61.16717 | 38948 ft | 506 kts | 69° |
| 2026-05-04 13:14 | 41.73549 | 61.25640 | 38949 ft | 506 kts | 69° |
| 2026-05-04 13:15 | 41.75842 | 61.34553 | 38952 ft | 506 kts | 69° |
| 2026-05-04 13:15 | 41.78132 | 61.43487 | 38945 ft | 506 kts | 69° |
| 2026-05-04 13:16 | 41.80415 | 61.52421 | 38955 ft | 506 kts | 69° |
| 2026-05-04 13:16 | 41.82686 | 61.61343 | 38947 ft | 504 kts | 69° |
| 2026-05-04 13:17 | 41.84933 | 61.70189 | 38947 ft | 504 kts | 69° |
| 2026-05-04 13:17 | 41.87183 | 61.79115 | 38946 ft | 504 kts | 69° |
| 2026-05-04 13:18 | 41.89413 | 61.88038 | 38944 ft | 502 kts | 69° |
| 2026-05-04 13:18 | 41.91635 | 61.96924 | 38946 ft | 502 kts | 69° |
| 2026-05-04 13:19 | 41.93849 | 62.05809 | 38948 ft | 502 kts | 69° |
| 2026-05-04 13:19 | 41.96057 | 62.14730 | 38948 ft | 501 kts | 69° |
| 2026-05-04 13:20 | 41.98255 | 62.23631 | 38947 ft | 501 kts | 69° |
| 2026-05-04 13:20 | 42.00445 | 62.32508 | 38944 ft | 501 kts | 69° |
| 2026-05-04 13:21 | 42.02634 | 62.41411 | 38944 ft | 501 kts | 69° |
| 2026-05-04 13:21 | 42.04819 | 62.50327 | 38949 ft | 501 kts | 69° |
| 2026-05-04 13:22 | 42.06999 | 62.59254 | 38946 ft | 501 kts | 70° |
| 2026-05-04 13:22 | 42.09169 | 62.68191 | 38944 ft | 502 kts | 70° |
| 2026-05-04 13:23 | 42.11333 | 62.77146 | 38952 ft | 501 kts | 70° |
| 2026-05-04 13:23 | 42.13487 | 62.86092 | 38947 ft | 501 kts | 70° |
| 2026-05-04 13:24 | 42.15635 | 62.95037 | 38946 ft | 501 kts | 70° |
| 2026-05-04 13:24 | 42.17772 | 63.03981 | 38948 ft | 501 kts | 70° |
| 2026-05-04 13:25 | 42.20959 | 63.17386 | 38958 ft | 499 kts | 70° |
| 2026-05-04 13:25 | 42.23078 | 63.26321 | 38960 ft | 499 kts | 70° |
| 2026-05-04 13:26 | 42.25178 | 63.35200 | 38964 ft | 499 kts | 70° |
| 2026-05-04 13:26 | 42.27282 | 63.44137 | 38968 ft | 498 kts | 70° |
| 2026-05-04 13:27 | 42.29377 | 63.53065 | 38971 ft | 498 kts | 70° |
| 2026-05-04 13:27 | 42.31465 | 63.62002 | 38968 ft | 498 kts | 70° |
| 2026-05-04 13:28 | 42.33549 | 63.70951 | 38977 ft | 498 kts | 70° |
| 2026-05-04 13:28 | 42.35623 | 63.79891 | 38978 ft | 497 kts | 70° |
| 2026-05-04 13:29 | 42.37691 | 63.88834 | 38973 ft | 498 kts | 70° |
| 2026-05-04 13:29 | 42.39752 | 63.97787 | 38973 ft | 498 kts | 70° |
| 2026-05-04 13:30 | 42.41785 | 64.06749 | 38979 ft | 497 kts | 71° |
| 2026-05-04 13:30 | 42.43792 | 64.15695 | 38970 ft | 496 kts | 71° |
| 2026-05-04 13:31 | 42.45797 | 64.24656 | 38981 ft | 496 kts | 71° |
| 2026-05-04 13:31 | 42.47809 | 64.33629 | 38974 ft | 496 kts | 71° |
| 2026-05-04 13:32 | 42.49823 | 64.42615 | 38986 ft | 496 kts | 71° |
| 2026-05-04 13:32 | 42.51828 | 64.51590 | 38987 ft | 497 kts | 71° |
| 2026-05-04 13:33 | 42.53826 | 64.60568 | 38978 ft | 497 kts | 71° |
| 2026-05-04 13:33 | 42.55813 | 64.69534 | 38983 ft | 495 kts | 71° |
| 2026-05-04 13:34 | 42.57791 | 64.78495 | 38978 ft | 495 kts | 71° |
| 2026-05-04 13:34 | 42.59748 | 64.87397 | 38984 ft | 495 kts | 71° |
| 2026-05-04 13:35 | 42.62687 | 65.00839 | 38985 ft | 494 kts | 71° |
| 2026-05-04 13:36 | 42.64635 | 65.09794 | 38982 ft | 494 kts | 71° |
| 2026-05-04 13:36 | 42.66577 | 65.18755 | 38981 ft | 494 kts | 71° |
| 2026-05-04 13:37 | 42.68512 | 65.27721 | 38977 ft | 494 kts | 71° |
| 2026-05-04 13:37 | 42.70435 | 65.36676 | 38984 ft | 493 kts | 71° |
| 2026-05-04 13:38 | 42.72353 | 65.45635 | 38977 ft | 493 kts | 71° |
| 2026-05-04 13:38 | 42.74264 | 65.54600 | 38983 ft | 493 kts | 71° |
| 2026-05-04 13:39 | 42.76168 | 65.63562 | 38981 ft | 492 kts | 71° |
| 2026-05-04 13:39 | 42.78063 | 65.72523 | 38981 ft | 492 kts | 71° |
| 2026-05-04 13:40 | 42.79945 | 65.81487 | 38983 ft | 492 kts | 71° |
| 2026-05-04 13:40 | 42.81819 | 65.90456 | 38979 ft | 492 kts | 71° |
| 2026-05-04 13:41 | 42.83689 | 65.99410 | 38982 ft | 490 kts | 72° |
| 2026-05-04 13:41 | 42.85542 | 66.08339 | 38976 ft | 489 kts | 72° |
| 2026-05-04 13:42 | 42.88284 | 66.21772 | 38973 ft | 490 kts | 72° |
| 2026-05-04 13:42 | 42.90103 | 66.30730 | 38974 ft | 488 kts | 72° |
| 2026-05-04 13:43 | 42.91909 | 66.39652 | 38977 ft | 487 kts | 72° |
| 2026-05-04 13:43 | 42.93712 | 66.48580 | 38976 ft | 487 kts | 72° |
| 2026-05-04 13:44 | 42.95494 | 66.57455 | 38978 ft | 487 kts | 72° |
| 2026-05-04 13:44 | 42.97293 | 66.66368 | 38981 ft | 486 kts | 72° |
| 2026-05-04 13:45 | 42.99101 | 66.75272 | 38980 ft | 486 kts | 72° |
| 2026-05-04 13:45 | 43.00880 | 66.84174 | 38979 ft | 486 kts | 73° |
| 2026-05-04 13:46 | 43.02638 | 66.93104 | 38994 ft | 486 kts | 73° |
| 2026-05-04 13:46 | 43.04388 | 67.02005 | 38989 ft | 484 kts | 73° |
| 2026-05-04 13:47 | 43.06132 | 67.10900 | 38990 ft | 483 kts | 73° |
| 2026-05-04 13:47 | 43.07869 | 67.19785 | 38991 ft | 483 kts | 73° |
| 2026-05-04 13:48 | 43.09602 | 67.28686 | 39000 ft | 482 kts | 73° |
| 2026-05-04 13:48 | 43.11320 | 67.37547 | 38994 ft | 480 kts | 73° |
| 2026-05-04 13:49 | 43.13026 | 67.46407 | 39000 ft | 480 kts | 73° |
| 2026-05-04 13:49 | 43.14722 | 67.55266 | 39002 ft | 480 kts | 73° |
| 2026-05-04 13:50 | 43.16418 | 67.64132 | 39003 ft | 480 kts | 73° |
| 2026-05-04 13:50 | 43.18109 | 67.73003 | 39002 ft | 480 kts | 73° |